Time;durP1;ratioP1;P1;durP2;ratioP2;P2;SDS_P1;SDS_P2;PMS_P1;PMS_P2;Temp;Humidity;BMP_temperature;BMP_pressure;BME280_temperature;BME280_humidity;BME280_pressure;Samples;Min_cycle;Max_cycle;Signal;HPM_P1;HPM_P2
2022/10/19 00:00:16;;;;;;;;;;;;;;;8.68;78.87;102861.06;5026484;28;19917;-56
2022/10/19 00:02:41;;;;;;;;;;;;;;;8.68;78.67;102845.19;5029176;28;19920;-57
2022/10/19 00:05:07;;;;;;;;;;;;;;;8.67;78.64;102844.34;5029807;28;20016;-56
2022/10/19 00:07:32;;;;;;;;;;;;;;;8.69;78.92;102836.28;5029209;28;20352;-57
2022/10/19 00:09:58;;;;;;;;;;;;;;;8.68;79.46;102839.88;5029388;28;19921;-56
2022/10/19 00:12:23;;;;;;;;;;;;;;;8.66;79.42;102836.47;5028042;28;19925;-58
2022/10/19 00:14:48;;;;;;;;;;;;;;;8.65;79.50;102835.63;5029156;28;19940;-58
2022/10/19 00:17:13;;;;;;;;;;;;;;;8.66;79.65;102841.78;5028613;28;19928;-57
2022/10/19 00:19:38;;;;;;;;;;;;;;;8.63;79.84;102834.03;5026007;28;19917;-58
2022/10/19 00:22:04;;;;;;;;;;;;;;;8.59;79.78;102840.53;5031309;28;19921;-57
2022/10/19 00:24:29;;;;;;;;;;;;;;;8.54;79.55;102835.56;5028322;28;19917;-57
2022/10/19 00:26:54;;;;;;;;;;;;;;;8.51;79.54;102841.06;5027226;28;20375;-58
2022/10/19 00:29:19;;;;;;;;;;;;;;;8.50;79.80;102843.81;5029216;28;20373;-58
2022/10/19 00:31:44;;;;;;;;;;;;;;;8.54;79.64;102837.34;5027476;28;19917;-57
2022/10/19 00:34:10;;;;;;;;;;;;;;;8.55;80.07;102834.59;5027433;28;20060;-57
2022/10/19 00:36:36;;;;;;;;;;;;;;;8.53;80.21;102835.66;5027207;28;19936;-57
2022/10/19 00:39:03;;;;;;;;;;;;;;;8.49;80.10;102824.44;5028274;28;20667;-57
2022/10/19 00:41:29;;;;;;;;;;;;;;;8.46;79.73;102829.13;5024561;28;20420;-57
2022/10/19 00:44:26;;;;;;;;;;;;;;;8.43;80.04;102824.88;5029009;28;19937;-56
2022/10/19 00:46:52;;;;;;;;;;;;;;;8.43;79.99;102824.03;5026638;28;20368;-57
2022/10/19 00:49:20;;;;;;;;;;;;;;;8.40;80.53;102833.03;5026162;28;19944;-58
2022/10/19 00:51:48;;;;;;;;;;;;;;;8.40;80.59;102832.19;5028915;28;19924;-58
2022/10/19 00:54:14;;;;;;;;;;;;;;;8.39;80.67;102828.72;5028552;28;19928;-57
2022/10/19 00:56:40;;;;;;;;;;;;;;;8.42;80.89;102832.94;5022244;28;19924;-58
2022/10/19 00:59:06;;;;;;;;;;;;;;;8.44;81.22;102831.88;5028463;28;20395;-58
2022/10/19 01:01:32;;;;;;;;;;;;;;;8.47;81.68;102831.66;5025727;28;19926;-58
2022/10/19 01:03:57;;;;;;;;;;;;;;;8.50;81.71;102827.94;5028038;28;20391;-58
2022/10/19 01:06:23;;;;;;;;;;;;;;;8.52;82.18;102841.91;5028966;28;19925;-57
2022/10/19 01:08:48;;;;;;;;;;;;;;;8.55;82.40;102837.25;5029250;28;19920;-57
2022/10/19 01:11:32;;;;;;;;;;;;;;;8.58;82.81;102834.38;5025929;28;19925;-57
2022/10/19 01:13:58;;;;;;;;;;;;;;;8.61;82.68;102828.84;5027179;28;19924;-58
2022/10/19 01:16:56;;;;;;;;;;;;;;;8.61;82.50;102828.84;5026418;28;19921;-58
2022/10/19 01:19:27;;;;;;;;;;;;;;;8.64;82.57;102830.44;4993246;28;19917;-57
2022/10/19 01:22:07;;;;;;;;;;;;;;;8.64;82.72;102823.34;5027679;28;19979;-58
2022/10/19 01:24:58;;;;;;;;;;;;;;;8.65;82.96;102819.75;5026451;28;20270;-58
2022/10/19 01:27:41;;;;;;;;;;;;;;;8.68;82.80;102818.69;5025467;28;19921;-58
2022/10/19 01:30:25;;;;;;;;;;;;;;;8.68;82.89;102822.19;5025263;28;19956;-58
2022/10/19 01:33:14;;;;;;;;;;;;;;;8.69;83.24;102823.03;5028728;28;19965;-58
2022/10/19 01:35:51;;;;;;;;;;;;;;;8.70;83.27;102816.78;5027132;28;20640;-56
2022/10/19 01:38:28;;;;;;;;;;;;;;;8.69;82.83;102815.09;5026563;28;19971;-57
2022/10/19 01:40:53;;;;;;;;;;;;;;;8.70;82.92;102814.13;5023882;28;19921;-55
2022/10/19 01:43:32;;;;;;;;;;;;;;;8.68;83.21;102821.34;5026696;28;20093;-58
2022/10/19 01:46:05;;;;;;;;;;;;;;;8.69;82.77;102815.09;5025492;28;19975;-56
2022/10/19 01:48:33;;;;;;;;;;;;;;;8.71;83.10;102818.47;5026835;28;20311;-58
2022/10/19 01:50:58;;;;;;;;;;;;;;;8.74;82.94;102817.41;5024753;28;20039;-57
2022/10/19 01:53:25;;;;;;;;;;;;;;;8.72;82.77;102820.16;5029314;28;20024;-58
2022/10/19 01:55:51;;;;;;;;;;;;;;;8.73;82.83;102815.72;5025991;28;20389;-58
2022/10/19 01:58:20;;;;;;;;;;;;;;;8.72;83.06;102812.22;5026072;28;19921;-57
2022/10/19 02:00:48;;;;;;;;;;;;;;;8.72;82.89;102812.22;5025165;28;20024;-57
2022/10/19 02:03:14;;;;;;;;;;;;;;;8.72;82.70;102806.94;5027872;28;19978;-57
2022/10/19 02:05:40;;;;;;;;;;;;;;;8.71;82.95;102807.03;5025109;28;19925;-58
2022/10/19 02:08:09;;;;;;;;;;;;;;;8.71;82.74;102801.75;5026969;28;19965;-58
2022/10/19 02:10:36;;;;;;;;;;;;;;;8.71;82.83;102799.09;5026233;28;20242;-56
2022/10/19 02:13:02;;;;;;;;;;;;;;;8.68;83.14;102795.72;5025253;28;19960;-58
2022/10/19 02:15:28;;;;;;;;;;;;;;;8.65;82.87;102787.09;5025952;28;20385;-58
2022/10/19 02:17:56;;;;;;;;;;;;;;;8.60;83.16;102790.09;5027029;28;19947;-57
2022/10/19 02:20:21;;;;;;;;;;;;;;;8.58;82.95;102785.88;5022866;28;20335;-56
2022/10/19 02:22:46;;;;;;;;;;;;;;;8.54;82.71;102781.75;5027298;28;19917;-58
2022/10/19 02:25:12;;;;;;;;;;;;;;;8.52;82.80;102783.66;5027193;28;19920;-57
2022/10/19 02:27:40;;;;;;;;;;;;;;;8.49;83.14;102776.78;5027414;28;20289;-58
2022/10/19 02:30:06;;;;;;;;;;;;;;;8.44;82.75;102773.63;5024486;28;19968;-58
2022/10/19 02:32:31;;;;;;;;;;;;;;;8.42;82.80;102769.41;5024853;28;20043;-58
2022/10/19 02:34:57;;;;;;;;;;;;;;;8.38;83.01;102764.31;5025313;28;19962;-57
2022/10/19 02:37:23;;;;;;;;;;;;;;;8.36;82.99;102760.06;5027367;28;19925;-58
2022/10/19 02:39:48;;;;;;;;;;;;;;;8.33;83.25;102754.97;5025164;28;19950;-58
2022/10/19 02:42:16;;;;;;;;;;;;;;;8.29;83.13;102754.34;5023121;28;20697;-57
2022/10/19 02:44:55;;;;;;;;;;;;;;;8.29;82.97;102756.13;5023799;28;19925;-58
2022/10/19 02:47:24;;;;;;;;;;;;;;;8.26;83.14;102759.84;5024599;28;19918;-58
2022/10/19 02:49:50;;;;;;;;;;;;;;;8.25;83.17;102760.81;5026960;28;19999;-57
2022/10/19 02:52:15;;;;;;;;;;;;;;;8.25;83.43;102759.94;5028611;28;20415;-58
2022/10/19 02:54:41;;;;;;;;;;;;;;;8.24;83.07;102756.47;5025962;28;19917;-58
2022/10/19 02:57:13;;;;;;;;;;;;;;;8.25;83.53;102758.16;5029931;28;20039;-58
2022/10/19 02:59:39;;;;;;;;;;;;;;;8.27;83.58;102755.41;5029885;28;20499;-58
2022/10/19 03:02:04;;;;;;;;;;;;;;;8.27;83.61;102758.03;5022420;28;20000;-57
2022/10/19 03:04:29;;;;;;;;;;;;;;;8.26;83.54;102765.13;5027213;28;20046;-58
2022/10/19 03:06:54;;;;;;;;;;;;;;;8.23;83.58;102768.00;5028886;28;19956;-58
2022/10/19 03:09:19;;;;;;;;;;;;;;;8.22;83.51;102763.66;5031926;28;19956;-57
2022/10/19 03:11:44;;;;;;;;;;;;;;;8.23;83.60;102759.22;5028460;28;19917;-58
2022/10/19 03:14:10;;;;;;;;;;;;;;;8.22;83.60;102758.38;5029972;28;19917;-56
2022/10/19 03:16:35;;;;;;;;;;;;;;;8.24;83.96;102756.47;5030752;28;19921;-58
2022/10/19 03:19:00;;;;;;;;;;;;;;;8.25;84.30;102749.38;5027467;28;20059;-57
2022/10/19 03:21:25;;;;;;;;;;;;;;;8.23;84.09;102757.41;5027932;28;19932;-58
2022/10/19 03:23:50;;;;;;;;;;;;;;;8.21;84.21;102761.97;5029874;28;20027;-57
2022/10/19 03:26:16;;;;;;;;;;;;;;;8.19;84.09;102753.28;5027113;28;19918;-57
2022/10/19 03:28:41;;;;;;;;;;;;;;;8.16;83.90;102742.94;5028381;28;20273;-57
2022/10/19 03:31:07;;;;;;;;;;;;;;;8.14;84.01;102750.13;5026402;28;20269;-57
2022/10/19 03:33:32;;;;;;;;;;;;;;;8.12;84.09;102746.75;5030970;28;19932;-57
2022/10/19 03:36:15;;;;;;;;;;;;;;;8.11;83.87;102755.66;5027273;28;20332;-57
2022/10/19 03:38:41;;;;;;;;;;;;;;;8.09;83.98;102754.88;5029358;28;19917;-58
2022/10/19 03:41:06;;;;;;;;;;;;;;;8.07;84.09;102754.13;5029158;28;19917;-56
2022/10/19 03:43:32;;;;;;;;;;;;;;;8.04;84.10;102749.06;5029953;28;19956;-58
2022/10/19 03:45:57;;;;;;;;;;;;;;;8.04;84.14;102747.25;5029999;28;20414;-58
2022/10/19 03:48:22;;;;;;;;;;;;;;;8.04;83.90;102743.78;5027722;28;19917;-57
2022/10/19 03:50:47;;;;;;;;;;;;;;;8.03;84.23;102748.22;5028358;28;20105;-58
2022/10/19 03:53:13;;;;;;;;;;;;;;;8.04;84.16;102746.41;5030685;28;19929;-58
2022/10/19 03:55:38;;;;;;;;;;;;;;;8.03;84.40;102757.97;5026714;28;19926;-58
2022/10/19 03:58:03;;;;;;;;;;;;;;;8.02;84.26;102757.13;5028639;28;19928;-57
2022/10/19 04:00:29;;;;;;;;;;;;;;;8.02;84.38;102767.69;5028233;28;20012;-57
2022/10/19 04:02:54;;;;;;;;;;;;;;;8.00;84.13;102761.66;5028494;28;19924;-58
2022/10/19 04:05:19;;;;;;;;;;;;;;;7.99;84.30;102765.28;5028395;28;19917;-56
2022/10/19 04:07:44;;;;;;;;;;;;;;;7.98;84.66;102760.09;5029971;28;19923;-58
2022/10/19 04:10:09;;;;;;;;;;;;;;;7.98;84.28;102771.50;5027801;28;19929;-58
2022/10/19 04:12:34;;;;;;;;;;;;;;;7.96;84.09;102773.41;5028036;28;20032;-58
2022/10/19 04:15:00;;;;;;;;;;;;;;;7.93;84.41;102772.78;5031886;28;20051;-58
2022/10/19 04:17:25;;;;;;;;;;;;;;;7.89;84.29;102772.16;5031291;28;19916;-58
2022/10/19 04:19:50;;;;;;;;;;;;;;;7.87;84.24;102766.13;5028398;28;19963;-58
2022/10/19 04:22:15;;;;;;;;;;;;;;;7.85;84.03;102761.91;5030335;28;19921;-56
2022/10/19 04:24:40;;;;;;;;;;;;;;;7.83;84.07;102759.38;5027608;28;19996;-58
2022/10/19 04:27:05;;;;;;;;;;;;;;;7.82;84.39;102754.19;5027778;28;19979;-58
2022/10/19 04:29:31;;;;;;;;;;;;;;;7.81;84.14;102755.13;5025640;28;20007;-58
2022/10/19 04:31:57;;;;;;;;;;;;;;;7.78;84.04;102748.22;5044432;28;19977;-58
2022/10/19 04:34:23;;;;;;;;;;;;;;;7.75;84.25;102749.28;5028303;28;19925;-57
2022/10/19 04:36:48;;;;;;;;;;;;;;;7.73;84.34;102759.13;5026278;28;19945;-56
2022/10/19 04:39:13;;;;;;;;;;;;;;;7.71;84.40;102757.53;5026320;28;20191;-56
2022/10/19 04:41:38;;;;;;;;;;;;;;;7.68;84.71;102755.09;5028169;28;19917;-57
2022/10/19 04:44:05;;;;;;;;;;;;;;;7.64;84.27;102756.28;5029860;28;20388;-58
2022/10/19 04:46:31;;;;;;;;;;;;;;;7.58;84.57;102752.25;5027498;28;19921;-56
2022/10/19 04:48:56;;;;;;;;;;;;;;;7.53;84.79;102748.22;5026453;28;19921;-57
2022/10/19 04:51:22;;;;;;;;;;;;;;;7.50;84.56;102751.91;5023725;28;20023;-58
2022/10/19 04:53:48;;;;;;;;;;;;;;;7.48;84.70;102751.16;5027448;28;20364;-57
2022/10/19 04:56:14;;;;;;;;;;;;;;;7.47;84.95;102749.47;5020938;28;19933;-58
2022/10/19 04:58:39;;;;;;;;;;;;;;;7.43;84.97;102751.47;5026964;28;19924;-58
2022/10/19 05:01:12;;;;;;;;;;;;;;;7.42;85.11;102751.59;5023616;28;19921;-57
2022/10/19 05:03:37;;;;;;;;;;;;;;;7.40;85.17;102754.34;5027897;28;19924;-57
2022/10/19 05:06:03;;;;;;;;;;;;;;;7.42;85.42;102763.00;5036212;28;19922;-57
2022/10/19 05:08:28;;;;;;;;;;;;;;;7.42;84.99;102756.88;5027750;28;19928;-56
2022/10/19 05:10:53;;;;;;;;;;;;;;;7.42;85.20;102751.59;5028952;28;19971;-57
2022/10/19 05:13:18;;;;;;;;;;;;;;;7.34;85.41;102744.19;5029502;28;20000;-56
2022/10/19 05:15:53;;;;;;;;;;;;;;;7.41;85.32;102755.19;5030352;28;19917;-57
2022/10/19 05:18:19;;;;;;;;;;;;;;;7.43;85.09;102754.13;5027340;28;19967;-58
2022/10/19 05:20:44;;;;;;;;;;;;;;;7.44;85.28;102752.31;5030208;28;19940;-58
2022/10/19 05:23:09;;;;;;;;;;;;;;;7.42;85.54;102746.28;5029592;28;19920;-57
2022/10/19 05:25:34;;;;;;;;;;;;;;;7.40;85.65;102741.13;5029799;28;19975;-57
2022/10/19 05:27:59;;;;;;;;;;;;;;;7.38;85.73;102739.53;5027791;28;19925;-57
2022/10/19 05:30:24;;;;;;;;;;;;;;;7.37;85.75;102732.53;5029453;28;19925;-58
2022/10/19 05:32:50;;;;;;;;;;;;;;;7.36;85.85;102731.69;5025849;28;19925;-58
2022/10/19 05:35:15;;;;;;;;;;;;;;;7.34;86.01;102733.59;5029433;28;20007;-57
2022/10/19 05:37:40;;;;;;;;;;;;;;;7.33;85.97;102737.19;5029920;28;19924;-57
2022/10/19 05:40:06;;;;;;;;;;;;;;;7.29;86.01;102729.59;5027504;28;19924;-58
2022/10/19 05:42:31;;;;;;;;;;;;;;;7.29;85.97;102734.88;5029286;28;19917;-58
2022/10/19 05:44:56;;;;;;;;;;;;;;;7.27;85.67;102721.75;5034161;28;19913;-58
2022/10/19 05:47:21;;;;;;;;;;;;;;;7.29;86.04;102725.16;5028472;28;19921;-57
2022/10/19 05:49:46;;;;;;;;;;;;;;;7.30;85.86;102724.19;5025432;28;19918;-58
2022/10/19 05:52:12;;;;;;;;;;;;;;;7.29;85.86;102730.44;5026837;28;19931;-58
2022/10/19 05:54:37;;;;;;;;;;;;;;;7.29;86.08;102724.28;5025029;28;19917;-58
2022/10/19 05:57:03;;;;;;;;;;;;;;;7.25;85.98;102722.81;5027583;28;19925;-57
2022/10/19 05:59:28;;;;;;;;;;;;;;;7.23;86.22;102722.03;5023991;28;19963;-57
2022/10/19 06:01:53;;;;;;;;;;;;;;;7.21;86.51;102724.78;5025720;28;19927;-57
2022/10/19 06:04:18;;;;;;;;;;;;;;;7.22;86.54;102720.34;5025114;28;19921;-58
2022/10/19 06:06:44;;;;;;;;;;;;;;;7.19;86.44;102726.69;5024691;28;19933;-56
2022/10/19 06:09:10;;;;;;;;;;;;;;;7.16;86.45;102724.25;5024439;28;20015;-57
2022/10/19 06:11:37;;;;;;;;;;;;;;;7.17;86.46;102730.38;5023355;28;19992;-57
2022/10/19 06:14:04;;;;;;;;;;;;;;;7.17;86.27;102730.38;5022686;28;19924;-57
2022/10/19 06:16:30;;;;;;;;;;;;;;;7.19;86.35;102726.69;5023579;28;19924;-57
2022/10/19 06:18:56;;;;;;;;;;;;;;;7.22;86.71;102728.28;5024904;28;19927;-57
2022/10/19 06:21:23;;;;;;;;;;;;;;;7.13;86.88;102704.16;5021991;28;19925;-56
2022/10/19 06:23:49;;;;;;;;;;;;;;;7.19;86.75;102716.13;5022518;28;19917;-57
2022/10/19 06:26:14;;;;;;;;;;;;;;;7.17;87.24;102707.44;5026827;28;19952;-56
2022/10/19 06:28:41;;;;;;;;;;;;;;;7.17;87.10;102709.25;5028660;28;19960;-57
2022/10/19 06:31:06;;;;;;;;;;;;;;;7.17;87.04;102710.09;5016826;28;19917;-57
2022/10/19 06:33:31;;;;;;;;;;;;;;;7.18;87.28;102705.66;5021716;28;19921;-56
2022/10/19 06:36:11;;;;;;;;;;;;;;;7.20;87.55;102709.88;5029728;28;19920;-57
2022/10/19 06:38:36;;;;;;;;;;;;;;;7.21;87.60;102710.72;5019543;28;19913;-56
2022/10/19 06:41:02;;;;;;;;;;;;;;;7.20;88.04;102715.16;5022235;28;20016;-54
2022/10/19 06:43:27;;;;;;;;;;;;;;;7.21;88.31;102714.22;5030284;28;20043;-57
2022/10/19 06:45:52;;;;;;;;;;;;;;;7.23;88.44;102719.41;5025229;28;19924;-57
2022/10/19 06:48:17;;;;;;;;;;;;;;;7.25;88.34;102723.66;5027563;28;19917;-56
2022/10/19 06:50:43;;;;;;;;;;;;;;;7.28;88.69;102722.59;5019841;28;19967;-56
2022/10/19 06:53:08;;;;;;;;;;;;;;;7.32;89.02;102721.44;5026489;28;19925;-57
2022/10/19 06:55:34;;;;;;;;;;;;;;;7.35;88.73;102730.00;5027874;28;20011;-58
2022/10/19 06:58:02;;;;;;;;;;;;;;;7.39;89.08;102735.94;5027372;28;20400;-57
2022/10/19 07:00:28;;;;;;;;;;;;;;;7.36;88.99;102720.28;5025410;28;19921;-58
2022/10/19 07:02:53;;;;;;;;;;;;;;;7.46;89.23;102727.47;5025838;28;19924;-57
2022/10/19 07:05:18;;;;;;;;;;;;;;;7.50;89.56;102727.25;5023555;28;19921;-58
2022/10/19 07:07:44;;;;;;;;;;;;;;;7.52;89.30;102725.34;5024863;28;19925;-57
2022/10/19 07:10:09;;;;;;;;;;;;;;;7.55;89.46;102726.03;5023940;28;19925;-56
2022/10/19 07:12:34;;;;;;;;;;;;;;;7.60;89.66;102715.13;5023551;28;19921;-57
2022/10/19 07:14:59;;;;;;;;;;;;;;;7.64;90.00;102719.25;5025562;28;19917;-58
2022/10/19 07:17:25;;;;;;;;;;;;;;;7.67;90.36;102724.31;5028679;28;19920;-58
2022/10/19 07:19:50;;;;;;;;;;;;;;;7.73;90.25;102722.09;5019307;28;19922;-57
2022/10/19 07:22:15;;;;;;;;;;;;;;;7.76;90.65;102729.81;5023890;28;19920;-57
2022/10/19 07:24:40;;;;;;;;;;;;;;;7.85;91.10;102727.50;5025030;28;19917;-57
2022/10/19 07:27:05;;;;;;;;;;;;;;;7.90;90.72;102722.75;5028776;28;19917;-56
2022/10/19 07:29:31;;;;;;;;;;;;;;;7.99;91.08;102727.38;5025331;28;19924;-57
2022/10/19 07:31:56;;;;;;;;;;;;;;;8.04;91.26;102722.59;5020457;28;20369;-57
2022/10/19 07:34:21;;;;;;;;;;;;;;;8.13;91.43;102723.78;5027673;28;19920;-58
2022/10/19 07:36:50;;;;;;;;;;;;;;;8.22;91.36;102717.81;5026569;28;19999;-57
2022/10/19 07:39:16;;;;;;;;;;;;;;;8.30;91.25;102723.41;5016698;28;19996;-58
2022/10/19 07:41:41;;;;;;;;;;;;;;;8.36;91.20;102726.50;5029064;28;20027;-58
2022/10/19 07:44:06;;;;;;;;;;;;;;;8.43;91.66;102731.38;5030321;28;19999;-57
2022/10/19 07:46:32;;;;;;;;;;;;;;;8.49;91.75;102725.63;5030573;28;19964;-57
2022/10/19 07:48:58;;;;;;;;;;;;;;;8.54;91.27;102731.44;5036387;28;19913;-58
2022/10/19 07:51:23;;;;;;;;;;;;;;;8.64;91.36;102721.84;5030607;28;19932;-58
2022/10/19 07:53:48;;;;;;;;;;;;;;;8.72;91.46;102718.66;5031150;28;19921;-57
2022/10/19 07:56:15;;;;;;;;;;;;;;;8.79;91.60;102712.78;5031280;28;19932;-58
2022/10/19 07:58:41;;;;;;;;;;;;;;;8.87;92.18;102713.06;5027833;28;19952;-58
2022/10/19 08:01:06;;;;;;;;;;;;;;;8.96;92.17;102706.22;5031677;28;19956;-58
2022/10/19 08:03:32;;;;;;;;;;;;;;;9.04;92.01;102708.34;5028868;28;19921;-57
2022/10/19 08:06:01;;;;;;;;;;;;;;;9.12;91.97;102705.94;5038718;28;19920;-58
2022/10/19 08:08:26;;;;;;;;;;;;;;;9.22;91.98;102709.59;5032245;28;19921;-57
2022/10/19 08:10:52;;;;;;;;;;;;;;;9.31;91.82;102709.75;5031691;28;20285;-57
2022/10/19 08:13:17;;;;;;;;;;;;;;;9.40;91.67;102702.91;5031436;28;19996;-57
2022/10/19 08:15:42;;;;;;;;;;;;;;;9.49;91.68;102704.84;5039268;28;19912;-57
2022/10/19 08:18:07;;;;;;;;;;;;;;;9.57;91.61;102704.28;5032900;28;19913;-57
2022/10/19 08:20:32;;;;;;;;;;;;;;;9.63;91.79;102706.44;5040201;28;20003;-58
2022/10/19 08:22:57;;;;;;;;;;;;;;;9.69;91.39;102708.63;5028570;28;19917;-57
2022/10/19 08:25:23;;;;;;;;;;;;;;;9.77;91.78;102708.00;5031192;28;20064;-57
2022/10/19 08:27:48;;;;;;;;;;;;;;;9.83;91.51;102708.41;5023178;28;20419;-57
2022/10/19 08:30:13;;;;;;;;;;;;;;;9.88;91.30;102703.56;5026062;28;20276;-58
2022/10/19 08:32:38;;;;;;;;;;;;;;;9.97;91.37;102709.13;5029318;28;19923;-58
2022/10/19 08:35:03;;;;;;;;;;;;;;;10.04;91.74;102705.84;5031005;28;20007;-58
2022/10/19 08:37:29;;;;;;;;;;;;;;;10.04;91.49;102683.75;5029871;28;20320;-58
2022/10/19 08:39:54;;;;;;;;;;;;;;;10.18;91.45;102691.50;5029142;28;19913;-57
2022/10/19 08:42:23;;;;;;;;;;;;;;;10.22;91.28;102685.84;5029926;28;20332;-58
2022/10/19 08:44:57;;;;;;;;;;;;;;;10.30;91.07;102663.13;5029940;28;19921;-58
2022/10/19 08:47:22;;;;;;;;;;;;;;;10.33;90.63;102669.03;5030180;28;19921;-58
2022/10/19 08:49:47;;;;;;;;;;;;;;;10.40;90.59;102656.09;5028889;28;19914;-58
2022/10/19 08:52:16;;;;;;;;;;;;;;;10.44;90.02;102649.59;5024286;28;19956;-58
2022/10/19 08:54:54;;;;;;;;;;;;;;;10.47;89.87;102654.66;5023606;28;20528;-57
2022/10/19 08:57:37;;;;;;;;;;;;;;;10.55;89.50;102654.84;5023100;28;19940;-58
2022/10/19 09:00:21;;;;;;;;;;;;;;;10.61;89.05;102654.34;5028247;28;20313;-58
2022/10/19 09:03:05;;;;;;;;;;;;;;;10.67;88.81;102656.50;5026188;28;19917;-58
2022/10/19 09:05:30;;;;;;;;;;;;;;;10.73;88.41;102666.63;5026585;28;19917;-57
2022/10/19 09:07:56;;;;;;;;;;;;;;;10.80;88.20;102664.31;5028370;28;19975;-57
2022/10/19 09:10:23;;;;;;;;;;;;;;;10.83;88.49;102662.22;5026821;28;19920;-56
2022/10/19 09:12:55;;;;;;;;;;;;;;;10.94;87.92;102652.50;5028759;28;19924;-58
2022/10/19 09:15:40;;;;;;;;;;;;;;;11.01;87.98;102643.91;5033294;28;20383;-57
2022/10/19 09:18:22;;;;;;;;;;;;;;;11.07;87.66;102637.22;5026917;28;19914;-56
2022/10/19 09:20:49;;;;;;;;;;;;;;;11.14;87.22;102649.03;5027848;28;19921;-58
2022/10/19 09:23:14;;;;;;;;;;;;;;;11.24;87.48;102644.59;5029257;28;20400;-57
2022/10/19 09:25:39;;;;;;;;;;;;;;;11.31;87.24;102639.63;5027407;28;20400;-58
2022/10/19 09:28:17;;;;;;;;;;;;;;;11.36;86.69;102635.59;5023241;28;20444;-57
2022/10/19 09:30:43;;;;;;;;;;;;;;;11.42;86.43;102645.69;5020267;28;19936;-57
2022/10/19 09:33:14;;;;;;;;;;;;;;;11.52;86.55;102642.22;5024706;28;20384;-58
2022/10/19 09:35:42;;;;;;;;;;;;;;;11.58;86.39;102647.91;5026412;28;19936;-57
2022/10/19 09:38:08;;;;;;;;;;;;;;;11.66;86.30;102641.91;5025719;28;19925;-58
2022/10/19 09:40:34;;;;;;;;;;;;;;;11.72;86.16;102652.00;5025205;28;20016;-56
2022/10/19 09:43:08;;;;;;;;;;;;;;;11.76;85.59;102640.09;5030172;28;19996;-58
2022/10/19 09:45:33;;;;;;;;;;;;;;;11.78;84.93;102649.69;5026918;28;19917;-57
2022/10/19 09:47:59;;;;;;;;;;;;;;;11.80;84.65;102638.91;5021545;28;19930;-57
2022/10/19 09:50:25;;;;;;;;;;;;;;;11.84;83.95;102644.78;5019346;28;20173;-58
2022/10/19 09:52:51;;;;;;;;;;;;;;;11.84;83.51;102650.09;5023917;28;19925;-58
2022/10/19 09:55:37;;;;;;;;;;;;;;;11.88;83.26;102628.44;5027790;28;19967;-58
2022/10/19 09:58:23;;;;;;;;;;;;;;;11.91;82.99;102630.81;5023990;28;19960;-58
2022/10/19 10:00:56;;;;;;;;;;;;;;;11.93;82.20;102628.88;5025972;28;20037;-57
2022/10/19 10:03:29;;;;;;;;;;;;;;;11.95;81.86;102628.72;5022677;28;19917;-58
2022/10/19 10:05:56;;;;;;;;;;;;;;;11.95;81.78;102632.22;5034699;28;20377;-58
2022/10/19 10:08:24;;;;;;;;;;;;;;;11.97;81.40;102629.44;5033726;28;19928;-56
2022/10/19 10:11:01;;;;;;;;;;;;;;;12.01;81.65;102615.72;5026794;28;19921;-57
2022/10/19 10:13:26;;;;;;;;;;;;;;;12.08;81.60;102613.34;5031568;28;19921;-57
2022/10/19 10:16:00;;;;;;;;;;;;;;;12.10;81.15;102604.22;5031483;28;20348;-58
2022/10/19 10:18:26;;;;;;;;;;;;;;;12.13;80.81;102594.28;5032391;28;19931;-58
2022/10/19 10:20:58;;;;;;;;;;;;;;;12.14;80.78;102586.16;5029027;28;19956;-58
2022/10/19 10:23:24;;;;;;;;;;;;;;;12.19;80.50;102583.09;5028147;28;19959;-57
2022/10/19 10:25:53;;;;;;;;;;;;;;;12.19;80.62;102602.59;5035511;28;20577;-57
2022/10/19 10:28:23;;;;;;;;;;;;;;;12.24;80.51;102608.34;5027728;28;19921;-58
2022/10/19 10:30:52;;;;;;;;;;;;;;;12.26;80.75;102606.38;5028009;28;19959;-57
2022/10/19 10:33:25;;;;;;;;;;;;;;;12.34;80.77;102613.66;5024954;28;19924;-58
2022/10/19 10:35:54;;;;;;;;;;;;;;;12.42;80.55;102608.47;5028301;28;19940;-57
2022/10/19 10:38:22;;;;;;;;;;;;;;;12.46;80.07;102599.25;5027112;28;20296;-58
2022/10/19 10:40:49;;;;;;;;;;;;;;;12.53;80.07;102599.53;5027481;28;19928;-58
2022/10/19 10:43:16;;;;;;;;;;;;;;;12.56;79.74;102596.56;5028171;28;19947;-57
2022/10/19 10:45:44;;;;;;;;;;;;;;;12.61;80.01;102597.81;5027915;28;19924;-58
2022/10/19 10:48:29;;;;;;;;;;;;;;;12.68;79.96;102590.09;5027692;28;19917;-58
2022/10/19 10:50:56;;;;;;;;;;;;;;;12.74;79.94;102588.72;5023700;28;19921;-57
2022/10/19 10:53:37;;;;;;;;;;;;;;;12.77;79.71;102577.75;5026486;28;19913;-56
2022/10/19 10:56:04;;;;;;;;;;;;;;;12.78;79.08;102585.63;5029293;28;19927;-58
2022/10/19 10:58:42;;;;;;;;;;;;;;;12.79;78.76;102573.97;5021533;28;19924;-58
2022/10/19 11:01:18;;;;;;;;;;;;;;;12.85;78.78;102584.06;5026276;28;19920;-58
2022/10/19 11:03:48;;;;;;;;;;;;;;;12.82;77.78;102568.34;5020522;28;19921;-57
2022/10/19 11:06:15;;;;;;;;;;;;;;;12.84;77.76;102561.03;5029006;28;19912;-58
2022/10/19 11:08:43;;;;;;;;;;;;;;;12.87;77.96;102560.75;5026903;28;19921;-57
2022/10/19 11:11:08;;;;;;;;;;;;;;;12.92;77.55;102549.66;5019913;28;19949;-58
2022/10/19 11:13:44;;;;;;;;;;;;;;;12.96;77.65;102551.03;5026669;28;19956;-58
2022/10/19 11:16:15;;;;;;;;;;;;;;;13.02;77.47;102550.50;5022977;28;20399;-57
2022/10/19 11:18:42;;;;;;;;;;;;;;;13.08;77.52;102546.41;5030276;28;20452;-57
2022/10/19 11:21:22;;;;;;;;;;;;;;;13.14;77.17;102537.81;5030988;28;20381;-58
2022/10/19 11:24:05;;;;;;;;;;;;;;;13.21;76.82;102531.78;5036033;28;19917;-58
2022/10/19 11:26:49;;;;;;;;;;;;;;;13.31;76.83;102529.09;5025372;28;20353;-58
2022/10/19 11:29:17;;;;;;;;;;;;;;;13.36;76.04;102540.16;5024884;28;19917;-56
2022/10/19 11:31:50;;;;;;;;;;;;;;;13.40;75.67;102530.84;5031205;28;19917;-55
2022/10/19 11:34:30;;;;;;;;;;;;;;;13.51;75.38;102519.97;5028927;28;20629;-57
2022/10/19 11:37:01;;;;;;;;;;;;;;;13.48;75.36;102514.09;5030927;28;19924;-58
2022/10/19 11:39:34;;;;;;;;;;;;;;;13.58;75.37;102522.88;5037575;28;20336;-58
2022/10/19 11:42:18;;;;;;;;;;;;;;;13.63;74.72;102518.81;5032711;28;19912;-59
2022/10/19 11:45:14;;;;;;;;;;;;;;;13.68;74.74;102510.34;5027032;28;19925;-58
2022/10/19 11:48:08;;;;;;;;;;;;;;;13.73;74.75;102492.03;5035738;28;19970;-58
2022/10/19 11:50:54;;;;;;;;;;;;;;;13.80;74.01;102476.22;5025869;28;19959;-58
2022/10/19 11:53:19;;;;;;;;;;;;;;;13.82;73.24;102479.59;5036053;28;19932;-58
2022/10/19 11:56:06;;;;;;;;;;;;;;;13.82;73.50;102469.75;5030383;28;19921;-58
2022/10/19 11:58:31;;;;;;;;;;;;;;;13.90;73.88;102469.84;5028070;28;19916;-59
2022/10/19 12:01:16;;;;;;;;;;;;;;;13.99;73.98;102451.22;5032570;28;19913;-59
2022/10/19 12:03:50;;;;;;;;;;;;;;;14.06;72.94;102457.63;5037969;28;19917;-59
2022/10/19 12:06:21;;;;;;;;;;;;;;;14.10;72.08;102441.13;5035803;28;19917;-59
2022/10/19 12:09:05;;;;;;;;;;;;;;;14.12;72.07;102441.81;5048752;28;19917;-58
2022/10/19 12:11:48;;;;;;;;;;;;;;;14.17;72.05;102434.19;5025741;28;19913;-58
2022/10/19 12:14:33;;;;;;;;;;;;;;;14.23;72.10;102438.91;5027161;28;20708;-59
2022/10/19 12:17:03;;;;;;;;;;;;;;;14.24;71.41;102421.03;5032020;28;19971;-57
2022/10/19 12:19:32;;;;;;;;;;;;;;;14.24;71.69;102429.91;5034380;28;19967;-59
2022/10/19 12:21:59;;;;;;;;;;;;;;;14.23;71.39;102424.72;5033236;28;19920;-57
2022/10/19 12:24:24;;;;;;;;;;;;;;;14.30;71.97;102423.09;5029877;28;20008;-59
2022/10/19 12:26:51;;;;;;;;;;;;;;;14.37;71.67;102429.47;5029627;28;20045;-59
2022/10/19 12:29:20;;;;;;;;;;;;;;;14.46;71.58;102425.06;5023380;28;19913;-59
2022/10/19 12:31:45;;;;;;;;;;;;;;;14.59;71.32;102416.63;5035893;28;20376;-58
2022/10/19 12:34:29;;;;;;;;;;;;;;;14.70;70.56;102405.63;5029435;28;19917;-59
2022/10/19 12:37:02;;;;;;;;;;;;;;;14.75;70.14;102396.16;5034588;28;20429;-59
2022/10/19 12:39:38;;;;;;;;;;;;;;;14.77;70.13;102399.50;5030472;28;19917;-59
2022/10/19 12:42:12;;;;;;;;;;;;;;;14.77;69.10;102396.84;5029792;28;19921;-59
2022/10/19 12:44:43;;;;;;;;;;;;;;;14.82;68.67;102388.34;5030330;28;20360;-58
2022/10/19 12:47:16;;;;;;;;;;;;;;;14.87;68.80;102375.31;5022445;28;19918;-59
2022/10/19 12:49:42;;;;;;;;;;;;;;;14.90;68.50;102379.50;5030851;28;19932;-59